NCAR-RAP Real-Time Weather Data

Output produced by METARs form (08 May 2021  00:40 UTC)
found at http://weather.rap.ucar.edu/surface/
 
KEET 072353Z AUTO 29003KT 10SM CLR 18/06 A3010 RMK AO2 SLP190 T01830056 10211 20183 56005
KEET 072253Z AUTO VRB05KT 10SM CLR 20/04 A3011 RMK AO2 SLP192 T02000039
KEET 072153Z AUTO 31009G14KT 10SM CLR 21/03 A3011 RMK AO2 SLP193 T02060033
KEET 072053Z AUTO 00000KT 10SM CLR 20/03 A3012 RMK AO2 SLP195 T02000028 56018
KEET 071953Z AUTO VRB05KT 10SM CLR 21/03 A3013 RMK AO2 SLP200 T02060033
KEET 071853Z AUTO VRB04KT 10SM CLR 20/03 A3015 RMK AO2 SLP207 T02000028
KEET 071753Z AUTO VRB04KT 10SM CLR 19/02 A3017 RMK AO2 SLP214 T01890017 10194 20117 58009
KEET 071653Z AUTO VRB05KT 10SM CLR 18/02 A3019 RMK AO2 SLP221 T01830017
KEET 071553Z AUTO 01007G16KT 10SM CLR 18/02 A3020 RMK AO2 SLP224 T01780017
KEET 071453Z AUTO 35011G19KT 10SM CLR 17/01 A3020 RMK AO2 SLP223 T01670006 51020
KEET 071353Z AUTO 01007KT 10SM CLR 15/05 A3018 RMK AO2 SLP219 T01500050
KEET 071253Z AUTO 01007KT 330V030 10SM CLR 13/08 A3016 RMK AO2 SLP209 T01330078
KEET 071153Z AUTO 35004KT 10SM CLR 12/09 A3014 RMK AO2 SLP204 T01170094 10128 20106 53020
KEET 071053Z AUTO 00000KT 10SM CLR 11/09 A3011 RMK AO2 SLP194 T01060089
KEET 070953Z AUTO 32003KT 10SM CLR 11/09 A3009 RMK AO2 SLP186 T01110089